createdAt,value
2017-12-31T00:02:23.924Z,95.21
2017-12-31T00:04:51.460Z,95.61
2017-12-31T00:07:19.039Z,95.87
2017-12-31T00:09:46.585Z,96.24
2017-12-31T00:12:14.186Z,96.69
2017-12-31T00:14:41.741Z,96.65
2017-12-31T00:17:09.264Z,96.97
2017-12-31T00:19:36.829Z,97.34
2017-12-31T00:22:04.453Z,97.18
2017-12-31T00:24:32.069Z,97.71
2017-12-31T00:26:59.599Z,97.81
2017-12-31T00:29:27.197Z,98.14
2017-12-31T00:31:54.717Z,98.58
2017-12-31T00:34:22.361Z,98.24
2017-12-31T00:36:49.919Z,98.11
2017-12-31T00:39:17.513Z,98.11
2017-12-31T00:41:45.063Z,98.33
2017-12-31T00:44:12.678Z,98.35
2017-12-31T00:46:40.298Z,98.16
2017-12-31T00:49:07.811Z,98.04
2017-12-31T00:51:35.319Z,98.27
2017-12-31T00:54:02.897Z,98.07
2017-12-31T00:56:30.418Z,97.75
2017-12-31T00:58:57.987Z,97.68
2017-12-31T01:01:25.585Z,98.45
2017-12-31T01:03:53.136Z,97.99
2017-12-31T01:06:20.873Z,97.75
2017-12-31T01:08:48.425Z,97.58
2017-12-31T01:11:15.998Z,97.54
2017-12-31T01:13:43.589Z,97.95
2017-12-31T01:16:11.130Z,98.04
2017-12-31T01:18:38.681Z,97.88
2017-12-31T01:21:06.269Z,98.47
2017-12-31T01:23:33.787Z,98.17
2017-12-31T01:26:01.496Z,98.20
2017-12-31T01:28:29.010Z,97.85
2017-12-31T01:30:56.563Z,97.80
2017-12-31T01:33:24.109Z,98.25
2017-12-31T01:35:54.546Z,97.80
2017-12-31T01:38:22.122Z,97.64
2017-12-31T01:40:49.647Z,97.32
2017-12-31T01:43:17.380Z,97.65
2017-12-31T01:45:44.931Z,96.79
2017-12-31T01:48:12.505Z,97.47
2017-12-31T01:50:40.116Z,97.21
2017-12-31T01:53:07.888Z,96.81
2017-12-31T01:55:35.658Z,96.78
2017-12-31T01:58:03.195Z,96.74
2017-12-31T02:00:30.720Z,97.17
2017-12-31T02:02:58.291Z,96.48
2017-12-31T02:05:28.028Z,96.23
2017-12-31T02:07:55.557Z,96.36
2017-12-31T02:10:23.227Z,96.17
2017-12-31T02:12:50.779Z,96.14
2017-12-31T02:15:18.316Z,95.79
2017-12-31T02:17:45.850Z,96.09
2017-12-31T02:20:13.500Z,96.03
2017-12-31T02:22:41.202Z,95.72
2017-12-31T02:25:08.750Z,95.74
2017-12-31T02:27:36.292Z,96.14
2017-12-31T02:30:03.875Z,95.88
2017-12-31T02:32:31.421Z,96.22
2017-12-31T02:34:58.970Z,96.19
2017-12-31T02:37:26.546Z,95.75
2017-12-31T02:39:54.074Z,96.54
2017-12-31T02:42:21.898Z,96.60
2017-12-31T02:44:49.465Z,97.10
2017-12-31T02:47:16.984Z,97.94
2017-12-31T02:49:44.517Z,97.40
2017-12-31T02:52:12.084Z,97.67
2017-12-31T02:54:39.641Z,98.48
2017-12-31T02:57:07.234Z,99.28
2017-12-31T02:59:34.782Z,98.97
2017-12-31T03:02:02.336Z,98.37
2017-12-31T03:04:29.892Z,99.25
2017-12-31T03:06:57.414Z,99.62
2017-12-31T03:09:24.986Z,99.54
2017-12-31T03:11:52.541Z,99.74
2017-12-31T03:14:20.350Z,99.57
2017-12-31T03:16:47.905Z,100.00
2017-12-31T03:19:15.464Z,100.00
2017-12-31T03:21:43.059Z,100.00
2017-12-31T03:24:10.610Z,100.00
2017-12-31T03:26:38.197Z,100.00
2017-12-31T03:29:05.728Z,100.00
2017-12-31T03:31:33.291Z,100.00
2017-12-31T03:34:00.864Z,100.00
2017-12-31T03:36:28.459Z,100.00
2017-12-31T03:38:56.021Z,100.00
2017-12-31T03:41:23.724Z,100.00
2017-12-31T03:43:51.284Z,100.00
2017-12-31T03:46:18.862Z,100.00
2017-12-31T03:48:46.417Z,100.00
2017-12-31T03:51:14.187Z,100.00
2017-12-31T03:53:41.781Z,100.00
2017-12-31T03:56:09.349Z,100.00
2017-12-31T03:58:36.914Z,100.00
2017-12-31T04:01:04.462Z,100.00
2017-12-31T04:03:31.980Z,100.00
2017-12-31T04:05:59.532Z,100.00
2017-12-31T04:08:27.047Z,100.00
2017-12-31T04:10:54.617Z,100.00
2017-12-31T04:13:22.308Z,100.00
2017-12-31T04:15:49.866Z,100.00
2017-12-31T04:18:17.390Z,100.00
2017-12-31T04:20:44.927Z,100.00
2017-12-31T04:23:12.457Z,100.00
2017-12-31T04:25:40.036Z,100.00
2017-12-31T04:28:07.562Z,100.00
2017-12-31T04:30:35.107Z,100.00
2017-12-31T04:33:02.682Z,100.00
2017-12-31T04:35:30.338Z,100.00
2017-12-31T04:37:57.873Z,100.00
2017-12-31T04:40:25.418Z,100.00
2017-12-31T04:42:53.019Z,100.00
2017-12-31T04:45:20.572Z,100.00
2017-12-31T04:47:48.095Z,100.00
2017-12-31T04:50:15.670Z,100.00
2017-12-31T04:52:43.194Z,100.00
2017-12-31T04:55:10.706Z,100.00
2017-12-31T04:57:38.318Z,100.00
2017-12-31T05:00:05.839Z,100.00
2017-12-31T05:02:33.400Z,100.00
2017-12-31T05:05:00.972Z,100.00
2017-12-31T05:07:28.618Z,100.00
2017-12-31T05:09:56.556Z,100.00
2017-12-31T05:12:24.160Z,100.00
2017-12-31T05:14:51.711Z,100.00
2017-12-31T05:17:19.269Z,100.00
2017-12-31T05:19:46.870Z,100.00
2017-12-31T05:22:14.551Z,100.00
2017-12-31T05:24:42.077Z,100.00
2017-12-31T05:27:09.640Z,100.00
2017-12-31T05:29:37.213Z,100.00
2017-12-31T05:32:04.765Z,100.00
2017-12-31T05:34:32.376Z,100.00
2017-12-31T05:36:59.924Z,100.00
2017-12-31T05:39:27.471Z,100.00
2017-12-31T05:41:55.023Z,100.00
2017-12-31T05:44:22.574Z,100.00
2017-12-31T05:46:50.137Z,100.00
2017-12-31T05:49:17.693Z,100.00
2017-12-31T05:51:45.204Z,100.00
2017-12-31T05:54:12.748Z,100.00
2017-12-31T05:56:40.268Z,100.00
2017-12-31T05:59:07.828Z,100.00
2017-12-31T06:01:35.344Z,100.00
2017-12-31T06:04:02.953Z,100.00
2017-12-31T06:06:30.550Z,100.00
2017-12-31T06:08:58.082Z,100.00
2017-12-31T06:11:25.685Z,100.00
2017-12-31T06:13:53.217Z,100.00
2017-12-31T06:16:20.765Z,100.00
2017-12-31T06:18:48.336Z,100.00
2017-12-31T06:21:15.855Z,100.00
2017-12-31T06:23:43.473Z,100.00
2017-12-31T06:26:11.098Z,100.00
2017-12-31T06:28:38.693Z,100.00
2017-12-31T06:31:06.212Z,100.00
2017-12-31T06:33:33.779Z,100.00
2017-12-31T06:36:01.415Z,100.00
2017-12-31T06:38:28.940Z,100.00
2017-12-31T06:40:56.485Z,100.00
2017-12-31T06:43:24.107Z,100.00
2017-12-31T06:45:51.669Z,100.00
2017-12-31T06:48:19.214Z,100.00
2017-12-31T06:50:46.767Z,100.00
2017-12-31T06:53:14.316Z,100.00
2017-12-31T06:55:41.874Z,100.00
2017-12-31T06:58:09.461Z,100.00
2017-12-31T07:00:37.070Z,100.00
2017-12-31T07:03:04.853Z,100.00
2017-12-31T07:05:32.367Z,100.00
2017-12-31T07:07:59.905Z,100.00
2017-12-31T07:10:27.472Z,100.00
2017-12-31T07:12:55.026Z,100.00
2017-12-31T07:15:22.564Z,100.00
2017-12-31T07:17:50.139Z,100.00
2017-12-31T07:20:17.687Z,100.00
2017-12-31T07:22:45.432Z,100.00
2017-12-31T07:25:13.041Z,100.00
2017-12-31T07:27:40.607Z,100.00
2017-12-31T07:30:08.125Z,100.00
2017-12-31T07:32:35.750Z,100.00
2017-12-31T07:35:03.283Z,100.00
2017-12-31T07:37:30.850Z,100.00
2017-12-31T07:39:58.413Z,100.00
2017-12-31T07:42:25.969Z,100.00
2017-12-31T07:44:53.685Z,100.00
2017-12-31T07:47:21.244Z,100.00
2017-12-31T07:49:48.834Z,100.00
2017-12-31T07:52:16.415Z,100.00
2017-12-31T07:54:43.994Z,100.00
2017-12-31T07:57:11.548Z,100.00
2017-12-31T07:59:39.145Z,100.00
2017-12-31T08:02:06.731Z,100.00
2017-12-31T08:04:34.380Z,100.00
2017-12-31T08:07:02.005Z,100.00
2017-12-31T08:09:29.590Z,100.00
2017-12-31T08:11:57.187Z,100.00
2017-12-31T08:14:24.804Z,100.00
2017-12-31T08:16:52.326Z,100.00
2017-12-31T08:19:19.910Z,100.00
2017-12-31T08:21:47.491Z,100.00
2017-12-31T08:24:15.048Z,100.00
2017-12-31T08:26:42.596Z,100.00
2017-12-31T08:29:10.190Z,100.00
2017-12-31T08:31:37.715Z,100.00
2017-12-31T08:34:05.250Z,100.00
2017-12-31T08:36:32.825Z,100.00
2017-12-31T08:39:00.439Z,100.00
2017-12-31T08:41:27.951Z,100.00
2017-12-31T08:43:55.463Z,100.00
2017-12-31T08:46:23.066Z,100.00
2017-12-31T08:48:50.611Z,100.00
2017-12-31T08:51:18.144Z,100.00
2017-12-31T08:53:45.696Z,99.57
2017-12-31T08:56:13.208Z,98.69
2017-12-31T09:00:35.949Z,98.76
2017-12-31T09:03:03.516Z,98.76
2017-12-31T09:05:31.240Z,98.93
2017-12-31T09:07:58.865Z,98.70
2017-12-31T09:10:26.385Z,98.66
2017-12-31T09:12:53.928Z,97.28
2017-12-31T09:15:21.545Z,98.43
2017-12-31T09:17:49.067Z,97.24
2017-12-31T09:20:16.599Z,97.93
2017-12-31T09:22:44.202Z,96.78
2017-12-31T09:25:11.933Z,96.69
2017-12-31T09:27:39.437Z,95.73
2017-12-31T09:30:06.957Z,95.49
2017-12-31T09:32:34.556Z,95.11
2017-12-31T09:35:02.075Z,94.99
2017-12-31T09:37:29.622Z,93.77
2017-12-31T09:39:57.205Z,95.17
2017-12-31T09:42:24.752Z,94.47
2017-12-31T09:44:52.318Z,94.39
2017-12-31T09:47:19.814Z,95.55
2017-12-31T09:49:47.361Z,96.21
2017-12-31T09:52:15.080Z,95.99
2017-12-31T09:54:42.656Z,96.25
2017-12-31T09:57:10.287Z,96.08
2017-12-31T09:59:37.795Z,96.25
2017-12-31T10:02:05.313Z,96.67
2017-12-31T10:04:32.852Z,96.67
2017-12-31T10:07:00.365Z,96.35
2017-12-31T10:09:27.895Z,96.66
2017-12-31T10:11:55.412Z,95.98
2017-12-31T10:14:22.957Z,97.15
2017-12-31T10:16:50.520Z,96.03
2017-12-31T10:19:18.032Z,96.45
2017-12-31T10:21:46.439Z,96.65
2017-12-31T10:24:13.977Z,96.15
2017-12-31T10:26:41.657Z,96.97
2017-12-31T10:29:09.232Z,97.01
2017-12-31T10:31:36.877Z,97.01
2017-12-31T10:34:04.415Z,97.71
2017-12-31T10:36:32.052Z,96.61
2017-12-31T10:38:59.605Z,97.01
2017-12-31T10:41:27.148Z,96.13
2017-12-31T10:43:54.712Z,96.46
2017-12-31T10:46:22.279Z,96.74
2017-12-31T10:48:52.432Z,95.42
2017-12-31T10:51:20.173Z,95.07
2017-12-31T10:53:47.748Z,94.06
2017-12-31T10:56:15.460Z,94.25
2017-12-31T10:58:42.995Z,92.84
2017-12-31T11:01:10.805Z,93.29
2017-12-31T11:03:38.324Z,92.95
2017-12-31T11:06:05.901Z,92.37
2017-12-31T11:08:33.423Z,92.34
2017-12-31T11:11:01.031Z,92.95
2017-12-31T11:13:28.568Z,92.30
2017-12-31T11:15:56.137Z,91.21
2017-12-31T11:18:24.383Z,91.18
2017-12-31T11:20:51.957Z,92.00
2017-12-31T11:23:19.504Z,90.15
2017-12-31T11:25:47.032Z,91.02
2017-12-31T11:28:14.887Z,90.12
2017-12-31T11:30:42.447Z,90.25
2017-12-31T11:33:09.953Z,90.15
2017-12-31T11:35:37.515Z,90.33
2017-12-31T11:38:05.052Z,90.19
2017-12-31T11:40:32.563Z,89.88
2017-12-31T11:43:00.100Z,89.03
2017-12-31T11:45:27.612Z,89.09
2017-12-31T11:47:55.148Z,89.16
2017-12-31T11:50:22.684Z,88.98
2017-12-31T11:52:50.215Z,89.01
2017-12-31T11:55:17.732Z,89.67
2017-12-31T12:00:12.306Z,88.99
2017-12-31T12:02:39.848Z,88.79
2017-12-31T12:05:07.455Z,89.11
2017-12-31T12:07:34.967Z,89.10
2017-12-31T12:10:02.610Z,88.01
2017-12-31T12:12:30.192Z,88.45
2017-12-31T12:14:57.699Z,88.63
2017-12-31T12:17:25.215Z,88.46
2017-12-31T12:19:52.787Z,88.11
2017-12-31T12:22:20.344Z,88.58
2017-12-31T12:24:47.888Z,88.36
2017-12-31T12:27:15.428Z,89.78
2017-12-31T12:29:43.038Z,89.11
2017-12-31T12:32:10.575Z,89.11
2017-12-31T12:34:38.087Z,88.98
2017-12-31T12:37:05.688Z,88.38
2017-12-31T12:39:33.264Z,89.10
2017-12-31T12:42:00.800Z,89.22
2017-12-31T12:44:28.369Z,87.71
2017-12-31T12:46:56.138Z,87.95
2017-12-31T12:49:23.766Z,87.86
2017-12-31T12:51:51.310Z,86.98
2017-12-31T12:54:19.012Z,88.08
2017-12-31T12:56:46.569Z,89.04
2017-12-31T12:59:14.258Z,89.26
2017-12-31T13:01:41.849Z,89.64
2017-12-31T13:04:09.383Z,91.25
2017-12-31T13:06:36.962Z,92.83
2017-12-31T13:09:04.592Z,94.01
2017-12-31T13:11:32.267Z,93.57
2017-12-31T13:13:59.840Z,95.32
2017-12-31T13:16:27.415Z,95.90
2017-12-31T13:18:54.950Z,95.87
2017-12-31T13:21:22.581Z,96.82
2017-12-31T13:23:50.156Z,96.68
2017-12-31T13:26:17.733Z,96.02
2017-12-31T13:28:45.257Z,96.29
2017-12-31T13:31:12.828Z,96.14
2017-12-31T13:33:40.379Z,96.76
2017-12-31T13:36:07.941Z,97.12
2017-12-31T13:38:35.551Z,96.91
2017-12-31T13:41:03.087Z,96.50
2017-12-31T13:43:31.596Z,96.17
2017-12-31T13:45:59.127Z,95.61
2017-12-31T13:48:26.672Z,95.78
2017-12-31T13:50:54.202Z,96.50
2017-12-31T13:53:21.765Z,95.96
2017-12-31T13:55:49.326Z,96.36
2017-12-31T13:58:16.879Z,96.69
2017-12-31T14:00:44.458Z,96.65
2017-12-31T14:03:12.004Z,95.65
2017-12-31T14:05:39.588Z,97.46
2017-12-31T14:08:07.291Z,98.46
2017-12-31T14:10:34.808Z,98.80
2017-12-31T14:13:02.349Z,98.82
2017-12-31T14:15:29.948Z,97.72
2017-12-31T14:17:57.525Z,99.45
2017-12-31T14:20:25.209Z,99.12
2017-12-31T14:22:52.842Z,97.88
2017-12-31T14:25:20.380Z,98.93
2017-12-31T14:27:47.882Z,98.05
2017-12-31T14:30:15.426Z,98.60
2017-12-31T14:32:42.951Z,98.79
2017-12-31T14:35:10.511Z,99.10
2017-12-31T14:37:38.115Z,98.92
2017-12-31T14:40:05.687Z,98.31
2017-12-31T14:42:33.224Z,99.33
2017-12-31T14:45:00.788Z,99.44
2017-12-31T14:47:28.412Z,98.15
2017-12-31T14:49:56.022Z,98.70
2017-12-31T14:52:23.581Z,98.83
2017-12-31T14:54:51.528Z,100.00
2017-12-31T14:57:19.057Z,99.57
2017-12-31T14:59:46.576Z,99.39
2017-12-31T15:02:14.142Z,99.04
2017-12-31T15:04:41.663Z,99.58
2017-12-31T15:07:09.213Z,99.16
2017-12-31T15:09:36.872Z,99.14
2017-12-31T15:12:04.435Z,98.86
2017-12-31T15:14:31.979Z,99.11
2017-12-31T15:16:59.566Z,99.68
2017-12-31T15:19:27.168Z,98.15
2017-12-31T15:21:54.674Z,98.85
2017-12-31T15:24:22.357Z,98.32
2017-12-31T15:26:49.907Z,98.16
2017-12-31T15:29:17.419Z,98.11
2017-12-31T15:31:45.018Z,97.45
2017-12-31T15:34:12.544Z,97.30
2017-12-31T15:36:40.125Z,97.10
2017-12-31T15:39:07.747Z,97.88
2017-12-31T15:41:35.291Z,97.82
2017-12-31T15:44:02.836Z,97.64
2017-12-31T15:46:30.474Z,97.71
2017-12-31T15:48:58.029Z,98.01
2017-12-31T15:51:25.680Z,98.84
2017-12-31T15:53:53.224Z,99.05
2017-12-31T15:56:20.882Z,99.33
2017-12-31T15:58:48.539Z,99.28
2017-12-31T16:01:16.131Z,98.49
2017-12-31T16:03:43.678Z,98.16
2017-12-31T16:06:11.252Z,98.28
2017-12-31T16:08:38.824Z,98.53
2017-12-31T16:11:06.339Z,98.85
2017-12-31T16:13:33.900Z,99.71
2017-12-31T16:16:01.549Z,99.36
2017-12-31T16:18:29.338Z,99.69
2017-12-31T16:20:57.067Z,99.94
2017-12-31T16:23:24.591Z,99.55
2017-12-31T16:25:52.340Z,99.59
2017-12-31T16:28:19.869Z,99.70
2017-12-31T16:30:47.420Z,100.00
2017-12-31T16:33:15.049Z,100.00
2017-12-31T16:35:42.619Z,100.00
2017-12-31T16:38:10.151Z,99.16
2017-12-31T16:40:37.712Z,99.15
2017-12-31T16:43:05.275Z,100.00
2017-12-31T16:45:32.892Z,99.69
2017-12-31T16:48:00.605Z,100.00
2017-12-31T16:50:28.168Z,99.63
2017-12-31T16:52:55.754Z,99.92
2017-12-31T16:55:23.364Z,99.52
2017-12-31T16:57:50.924Z,99.33
2017-12-31T17:00:18.470Z,98.95
2017-12-31T17:02:46.024Z,98.90
2017-12-31T17:05:13.542Z,100.00
2017-12-31T17:07:41.357Z,100.00
2017-12-31T17:10:09.084Z,100.00
2017-12-31T17:12:36.760Z,100.00
2017-12-31T17:15:04.733Z,100.00
2017-12-31T17:17:32.387Z,98.59
2017-12-31T17:19:59.948Z,98.88
2017-12-31T17:22:27.505Z,99.12
2017-12-31T17:24:55.222Z,99.51
2017-12-31T17:27:22.899Z,99.56
2017-12-31T17:29:50.445Z,99.78
2017-12-31T17:32:18.009Z,100.00
2017-12-31T17:34:45.528Z,100.00
2017-12-31T17:37:13.068Z,100.00
2017-12-31T17:39:40.876Z,100.00
2017-12-31T17:42:08.422Z,100.00
2017-12-31T17:44:36.002Z,99.98
2017-12-31T17:47:03.559Z,100.00
2017-12-31T17:49:31.112Z,100.00
2017-12-31T17:51:58.714Z,100.00
2017-12-31T17:54:26.260Z,100.00
2017-12-31T17:56:53.780Z,100.00
2017-12-31T17:59:21.339Z,100.00
2017-12-31T18:01:49.138Z,100.00
2017-12-31T18:04:16.711Z,100.00
2017-12-31T18:06:44.251Z,100.00
2017-12-31T18:09:11.828Z,100.00
2017-12-31T18:11:39.360Z,100.00
2017-12-31T18:14:06.946Z,100.00
2017-12-31T18:16:34.566Z,100.00
2017-12-31T18:19:02.158Z,100.00
2017-12-31T18:21:29.749Z,100.00
2017-12-31T18:23:57.279Z,100.00
2017-12-31T18:26:24.791Z,100.00
2017-12-31T18:28:52.324Z,100.00
2017-12-31T18:31:20.018Z,100.00
2017-12-31T18:33:47.788Z,100.00
2017-12-31T18:36:15.332Z,100.00
2017-12-31T18:38:42.869Z,100.00
2017-12-31T18:41:10.611Z,100.00
2017-12-31T18:43:38.155Z,100.00
2017-12-31T18:46:05.672Z,100.00
2017-12-31T18:48:33.256Z,100.00
2017-12-31T18:51:03.501Z,100.00
2017-12-31T18:53:31.159Z,100.00
2017-12-31T18:56:00.151Z,100.00
2017-12-31T18:58:29.846Z,100.00
2017-12-31T19:00:58.768Z,100.00
2017-12-31T19:03:26.941Z,100.00
2017-12-31T19:05:54.476Z,100.00
2017-12-31T19:08:22.048Z,100.00
2017-12-31T19:10:49.588Z,100.00
2017-12-31T19:13:17.152Z,100.00
2017-12-31T19:15:44.740Z,99.86
2017-12-31T19:18:12.275Z,99.97
2017-12-31T19:20:39.795Z,100.00
2017-12-31T19:23:07.376Z,99.45
2017-12-31T19:25:34.888Z,99.20
2017-12-31T19:28:02.439Z,99.77
2017-12-31T19:30:29.992Z,99.99
2017-12-31T19:32:57.634Z,100.00
2017-12-31T19:35:25.233Z,100.00
2017-12-31T19:37:52.884Z,100.00
2017-12-31T19:40:20.431Z,100.00
2017-12-31T19:42:48.133Z,100.00
2017-12-31T19:45:15.677Z,100.00
2017-12-31T19:47:43.276Z,100.00
2017-12-31T19:50:10.831Z,100.00
2017-12-31T19:52:38.349Z,100.00
2017-12-31T19:55:05.880Z,100.00
2017-12-31T19:57:33.562Z,100.00
2017-12-31T20:00:01.116Z,100.00
2017-12-31T20:02:28.667Z,100.00
2017-12-31T20:04:56.241Z,100.00
2017-12-31T20:07:23.801Z,100.00
2017-12-31T20:09:51.376Z,100.00
2017-12-31T20:12:18.908Z,100.00
2017-12-31T20:14:46.504Z,100.00
2017-12-31T20:17:14.060Z,100.00
2017-12-31T20:19:41.621Z,100.00
2017-12-31T20:22:09.196Z,100.00
2017-12-31T20:24:36.767Z,100.00
2017-12-31T20:27:04.335Z,99.62
2017-12-31T20:29:31.875Z,99.87
2017-12-31T20:31:59.421Z,100.00
2017-12-31T20:34:27.013Z,99.99
2017-12-31T20:36:54.565Z,99.51
2017-12-31T20:39:22.211Z,99.30
2017-12-31T20:41:50.278Z,99.57
2017-12-31T20:44:17.973Z,100.00
2017-12-31T20:46:45.601Z,100.00
2017-12-31T20:49:13.149Z,100.00
2017-12-31T20:51:40.782Z,100.00
2017-12-31T20:54:08.347Z,100.00
2017-12-31T20:56:35.912Z,100.00
2017-12-31T20:59:03.470Z,100.00
2017-12-31T21:01:31.096Z,100.00
2017-12-31T21:03:58.659Z,99.74
2017-12-31T21:06:26.208Z,99.83
2017-12-31T21:08:53.731Z,99.88
2017-12-31T21:11:21.270Z,99.90
2017-12-31T21:13:48.810Z,99.25
2017-12-31T21:16:16.319Z,98.76
2017-12-31T21:18:43.880Z,98.38
2017-12-31T21:21:11.416Z,99.30
2017-12-31T21:23:38.992Z,99.22
2017-12-31T21:26:06.526Z,99.57
2017-12-31T21:28:34.071Z,98.91
2017-12-31T21:31:01.698Z,98.51
2017-12-31T21:33:29.229Z,98.64
2017-12-31T21:35:56.764Z,98.31
2017-12-31T21:38:24.355Z,97.92
2017-12-31T21:40:51.902Z,99.04
2017-12-31T21:43:19.415Z,98.65
2017-12-31T21:45:46.984Z,98.76
2017-12-31T21:48:14.524Z,97.91
2017-12-31T21:50:42.076Z,98.92
2017-12-31T21:53:09.671Z,98.74
2017-12-31T21:55:37.213Z,98.68
2017-12-31T21:58:04.765Z,99.01
2017-12-31T22:00:32.418Z,98.99
2017-12-31T22:02:59.935Z,98.51
2017-12-31T22:05:27.541Z,98.21
2017-12-31T22:07:55.062Z,97.90
2017-12-31T22:10:22.594Z,97.75
2017-12-31T22:12:50.129Z,98.21
2017-12-31T22:15:17.736Z,98.38
2017-12-31T22:17:45.272Z,97.37
2017-12-31T22:20:12.876Z,97.83
2017-12-31T22:22:40.416Z,97.90
2017-12-31T22:25:07.956Z,97.36
2017-12-31T22:27:35.551Z,97.87
2017-12-31T22:30:03.115Z,98.40
2017-12-31T22:32:30.775Z,98.82
2017-12-31T22:34:58.331Z,99.61
2017-12-31T22:37:25.842Z,98.99
2017-12-31T22:39:53.487Z,98.50
2017-12-31T22:42:21.025Z,97.64
2017-12-31T22:44:48.622Z,97.81
2017-12-31T22:47:16.187Z,96.62
2017-12-31T22:49:43.732Z,96.86
2017-12-31T22:52:11.315Z,96.11
2017-12-31T22:54:38.846Z,95.98
2017-12-31T22:57:06.610Z,96.37
2017-12-31T22:59:34.174Z,95.82
2017-12-31T23:02:01.742Z,97.01
2017-12-31T23:04:29.302Z,96.56
2017-12-31T23:06:56.839Z,96.73
2017-12-31T23:09:24.460Z,96.20
2017-12-31T23:11:52.028Z,95.28
2017-12-31T23:14:19.767Z,95.29
2017-12-31T23:16:47.291Z,95.52
2017-12-31T23:19:14.823Z,95.16
2017-12-31T23:21:42.383Z,95.13
2017-12-31T23:24:09.967Z,95.77
2017-12-31T23:26:37.522Z,94.25
2017-12-31T23:29:05.038Z,94.56
2017-12-31T23:31:32.646Z,94.38
2017-12-31T23:34:00.205Z,95.57
2017-12-31T23:36:27.738Z,95.26
2017-12-31T23:38:55.342Z,94.78
2017-12-31T23:41:22.917Z,93.75
2017-12-31T23:46:29.122Z,94.58
2017-12-31T23:48:56.686Z,93.91
2017-12-31T23:51:24.269Z,93.81
2017-12-31T23:53:51.824Z,93.80
2017-12-31T23:56:19.368Z,93.10
2017-12-31T23:58:46.981Z,93.01
